ěÝzenÝ letovÚho provozu ╚eskÚ republiky
Letiste: LKPR Aktualizace: 27.02.2024 14:30:57  UTC
 METAR LKPR 27.02. 14:30 ...
METAR LKPR 271430Z 02005KT 350V050 9999 BKN014 07/05 Q1012 NOSIG=
 TAF LKPR 27.02. 14:00 ...
TAF LKPR 271400Z 2715/2821 35006KT 9999 SCT015      BECMG 2800/2802 5000 BR SCT010      TEMPO 2802/2807 1200 BR BKN004      BECMG 2807/2809 9999 OVC017      BECMG 2816/2818 9999 SCT025=